Time;durP1;ratioP1;P1;durP2;ratioP2;P2;SDS_P1;SDS_P2;PMS_P1;PMS_P2;Temp;Humidity;BMP_temperature;BMP_pressure;BME280_temperature;BME280_humidity;BME280_pressure;Samples;Min_cycle;Max_cycle;Signal;HPM_P1;HPM_P2
2020/12/12 00:01:06;;;;;;;15.83;7.40;;;;;;;-2.02;79.91;99733.73;1736632;80;21167;-52
2020/12/12 00:03:34;;;;;;;16.73;8.57;;;;;;;-2.02;79.94;99735.06;1738328;80;21139;-50
2020/12/12 00:06:01;;;;;;;13.50;7.97;;;;;;;-2.01;79.93;99739.89;1739756;80;21201;-52
2020/12/12 00:08:28;;;;;;;16.77;8.90;;;;;;;-2.01;79.94;99738.58;1742513;80;21107;-50
2020/12/12 00:10:55;;;;;;;15.67;8.23;;;;;;;-2.02;79.94;99735.06;1739015;80;21566;-49
2020/12/12 00:13:24;;;;;;;15.47;7.43;;;;;;;-2.02;79.96;99735.49;1740589;80;21178;-55
2020/12/12 00:15:51;;;;;;;14.23;6.77;;;;;;;-2.02;80.02;99734.17;1738314;80;21171;-52
2020/12/12 00:18:18;;;;;;;15.83;7.73;;;;;;;-2.04;80.05;99739.44;1741198;80;21829;-55
2020/12/12 00:20:45;;;;;;;17.13;8.17;;;;;;;-2.05;80.07;99731.11;1737584;80;21178;-54
2020/12/12 00:23:13;;;;;;;15.43;8.23;;;;;;;-2.06;80.15;99733.74;1739973;80;21183;-50
2020/12/12 00:25:41;;;;;;;18.17;8.30;;;;;;;-2.06;80.21;99724.52;1735831;80;21207;-51
2020/12/12 00:28:08;;;;;;;21.20;8.27;;;;;;;-2.05;80.25;99724.95;1738167;80;21186;-51
2020/12/12 00:30:35;;;;;;;16.23;7.27;;;;;;;-2.05;80.30;99719.69;1735673;80;22701;-52
2020/12/12 00:33:02;;;;;;;17.30;9.30;;;;;;;-2.03;80.31;99717.91;1756102;80;21243;-50
2020/12/12 00:35:29;;;;;;;17.23;7.07;;;;;;;-2.02;80.31;99718.34;1759844;79;21191;-48
2020/12/12 00:37:56;;;;;;;11.33;5.97;;;;;;;-2.03;80.37;99722.74;1761830;79;21825;-47
2020/12/12 00:40:24;;;;;;;13.23;7.17;;;;;;;-2.01;80.37;99721.43;1761099;79;21183;-48
2020/12/12 00:42:51;;;;;;;15.40;8.00;;;;;;;-2.00;80.40;99717.92;1763036;79;21250;-49
2020/12/12 00:45:18;;;;;;;15.77;8.17;;;;;;;-1.98;80.42;99723.65;1761344;79;21598;-52
2020/12/12 00:47:45;;;;;;;15.47;8.27;;;;;;;-1.95;80.46;99726.70;1761765;79;21171;-50
2020/12/12 00:50:13;;;;;;;21.50;7.53;;;;;;;-1.93;80.43;99721.00;1759638;79;21202;-50
2020/12/12 00:52:41;;;;;;;18.33;8.07;;;;;;;-1.92;80.41;99710.89;1737921;80;22468;-51
2020/12/12 00:55:08;;;;;;;20.43;8.47;;;;;;;-1.90;80.44;99707.83;1761381;79;22310;-51
2020/12/12 00:57:35;;;;;;;15.87;7.83;;;;;;;-1.87;80.41;99714.41;1763286;80;21191;-50
2020/12/12 01:00:04;;;;;;;19.27;8.37;;;;;;;-1.85;80.41;99721.01;1761634;80;21179;-49
2020/12/12 01:02:31;;;;;;;18.87;9.20;;;;;;;-1.85;80.37;99719.25;1762276;79;21796;-52
2020/12/12 01:05:00;;;;;;;15.57;7.83;;;;;;;-1.85;80.36;99714.41;1758667;80;21195;-50
2020/12/12 01:07:27;;;;;;;15.37;8.30;;;;;;;-1.86;80.41;99718.80;1762998;80;21214;-49
2020/12/12 01:09:55;;;;;;;15.40;8.17;;;;;;;-1.84;80.43;99720.13;1760714;79;21207;-53
2020/12/12 01:12:22;;;;;;;14.13;7.83;;;;;;;-1.80;80.46;99716.63;1765586;79;21524;-55
2020/12/12 01:14:49;;;;;;;15.87;7.73;;;;;;;-1.78;80.44;99714.41;1765590;80;21226;-50
2020/12/12 01:17:16;;;;;;;14.83;7.17;;;;;;;-1.77;80.42;99710.90;1763652;80;22549;-53
2020/12/12 01:19:44;;;;;;;15.03;8.23;;;;;;;-1.76;80.39;99706.50;1765322;79;21604;-53
2020/12/12 01:22:11;;;;;;;18.03;8.33;;;;;;;-1.76;80.38;99705.19;1765959;79;21215;-48
2020/12/12 01:24:39;;;;;;;12.87;7.67;;;;;;;-1.75;80.41;99712.22;1766297;79;21202;-55
2020/12/12 01:27:06;;;;;;;16.63;8.03;;;;;;;-1.74;80.45;99706.07;1756992;79;21204;-53
2020/12/12 01:29:34;;;;;;;13.93;8.40;;;;;;;-1.71;80.44;99712.69;1763333;80;21104;-55
2020/12/12 01:32:01;;;;;;;22.87;9.07;;;;;;;-1.69;80.43;99715.73;1762014;79;21377;-53
2020/12/12 01:34:29;;;;;;;16.60;7.27;;;;;;;-1.70;80.41;99707.84;1762181;80;21226;-51
2020/12/12 01:36:56;;;;;;;14.93;8.10;;;;;;;-1.69;80.40;99713.53;1757428;80;21180;-52
2020/12/12 01:39:23;;;;;;;17.37;8.43;;;;;;;-1.68;80.42;99708.70;1759636;80;21187;-52
2020/12/12 01:41:54;;;;;;;16.70;8.13;;;;;;;-1.67;80.40;99707.83;1757881;80;21618;-51
2020/12/12 01:44:22;;;;;;;12.13;6.67;;;;;;;-1.66;80.44;99706.95;1759487;80;21883;-55
2020/12/12 01:46:49;;;;;;;15.23;7.50;;;;;;;-1.65;80.39;99710.92;1718118;81;21124;-52
2020/12/12 01:49:16;;;;;;;19.17;9.47;;;;;;;-1.64;80.38;99702.13;1713856;82;21139;-51
2020/12/12 01:51:44;;;;;;;16.13;8.37;;;;;;;-1.63;80.37;99706.53;1689798;83;21227;-49
2020/12/12 01:54:11;;;;;;;13.90;7.53;;;;;;;-1.63;80.39;99703.89;1707766;82;21215;-50
2020/12/12 01:56:38;;;;;;;15.10;7.23;;;;;;;-1.62;80.39;99706.09;1708318;82;21752;-50
2020/12/12 01:59:07;;;;;;;17.10;7.10;;;;;;;-1.63;80.40;99706.53;1681741;83;21229;-50
2020/12/12 02:01:38;;;;;;;17.67;8.17;;;;;;;-1.61;80.40;99701.22;1682239;83;21220;-50
2020/12/12 02:04:07;;;;;;;17.70;8.80;;;;;;;-1.60;80.34;99700.34;1718538;81;21212;-53
2020/12/12 02:06:37;;;;;;;15.83;7.90;;;;;;;-1.59;80.37;99704.74;1709400;82;21124;-52
2020/12/12 02:09:04;;;;;;;13.33;7.43;;;;;;;-1.58;80.35;99702.55;1711689;81;21217;-54
2020/12/12 02:11:31;;;;;;;13.67;7.00;;;;;;;-1.58;80.30;99695.95;1706725;82;21151;-50
2020/12/12 02:13:58;;;;;;;12.63;5.90;;;;;;;-1.60;80.32;99695.94;1712018;82;21216;-50
2020/12/12 02:16:26;;;;;;;17.40;8.27;;;;;;;-1.57;80.31;99697.72;1681601;83;21175;-51
2020/12/12 02:18:53;;;;;;;19.80;8.60;;;;;;;-1.58;80.25;99688.91;1703870;82;21225;-54
2020/12/12 02:21:20;;;;;;;13.93;7.73;;;;;;;-1.58;80.33;99689.35;1683443;83;21567;-54
2020/12/12 02:23:47;;;;;;;16.23;8.67;;;;;;;-1.59;80.27;99683.19;1706659;81;21205;-54
2020/12/12 02:26:14;;;;;;;13.50;7.13;;;;;;;-1.58;80.32;99683.63;1686610;83;21199;-53
2020/12/12 02:28:51;;;;;;;15.93;8.10;;;;;;;-1.56;80.27;99687.16;1707780;81;21230;-55
2020/12/12 02:31:17;;;;;;;17.13;7.43;;;;;;;-1.54;80.23;99680.13;1683019;83;21613;-54
2020/12/12 02:33:44;;;;;;;13.53;7.13;;;;;;;-1.53;80.25;99686.25;1705211;82;21306;-54
2020/12/12 02:36:12;;;;;;;18.30;8.83;;;;;;;-1.53;80.19;99683.61;1706570;82;21481;-54
2020/12/12 02:38:44;;;;;;;15.57;8.13;;;;;;;-1.56;80.18;99675.28;1708556;82;21239;-51
2020/12/12 02:41:11;;;;;;;16.27;8.07;;;;;;;-1.55;80.14;99678.80;1698840;82;21175;-51
2020/12/12 02:43:38;;;;;;;13.57;7.60;;;;;;;-1.56;80.07;99679.24;1761475;79;21497;-49
2020/12/12 02:46:06;;;;;;;17.30;9.10;;;;;;;-1.59;80.01;99684.95;1761300;79;21200;-46
2020/12/12 02:48:33;;;;;;;15.07;8.77;;;;;;;-1.63;80.06;99674.86;1762094;80;21248;-51
2020/12/12 02:51:00;;;;;;;12.77;8.07;;;;;;;-1.65;80.14;99670.01;1762526;79;21637;-47
2020/12/12 02:53:28;;;;;;;18.07;7.70;;;;;;;-1.62;80.16;99673.09;1761534;80;21195;-51
2020/12/12 02:55:55;;;;;;;14.93;8.00;;;;;;;-1.61;80.17;99679.66;1762025;79;21158;-50
2020/12/12 02:58:22;;;;;;;16.50;8.63;;;;;;;-1.58;80.12;99674.39;1764040;79;22222;-49
2020/12/12 03:00:49;;;;;;;15.93;7.67;;;;;;;-1.58;80.11;99678.80;1763475;79;21202;-49
2020/12/12 03:03:17;;;;;;;14.80;7.93;;;;;;;-1.56;80.05;99679.68;1762192;79;21209;-52
2020/12/12 03:05:44;;;;;;;14.67;7.70;;;;;;;-1.56;79.98;99683.20;1762673;79;21613;-53
2020/12/12 03:08:11;;;;;;;19.50;8.03;;;;;;;-1.55;79.89;99678.36;1761098;79;21211;-48
2020/12/12 03:10:39;;;;;;;17.07;8.37;;;;;;;-1.56;79.72;99677.04;1763965;80;21425;-48
2020/12/12 03:13:06;;;;;;;18.43;7.40;;;;;;;-1.59;79.76;99684.95;1764991;80;21239;-47
2020/12/12 03:15:34;;;;;;;21.40;7.13;;;;;;;-1.60;79.80;99685.39;1765758;79;21630;-53
2020/12/12 03:18:01;;;;;;;13.40;6.30;;;;;;;-1.60;79.72;99681.42;1759786;80;21207;-51
2020/12/12 03:20:29;;;;;;;14.00;7.90;;;;;;;-1.60;79.68;99690.66;1698573;82;21186;-48
2020/12/12 03:22:57;;;;;;;15.47;6.43;;;;;;;-1.62;79.60;99681.02;1700745;82;21196;-47
2020/12/12 03:25:24;;;;;;;19.03;8.10;;;;;;;-1.65;79.49;99683.64;1762573;79;21479;-47
2020/12/12 03:27:51;;;;;;;12.57;6.20;;;;;;;-1.68;79.39;99684.52;1763380;79;21227;-52
2020/12/12 03:30:18;;;;;;;15.80;6.80;;;;;;;-1.70;79.41;99684.09;1764651;79;22269;-53
2020/12/12 03:32:46;;;;;;;12.87;6.00;;;;;;;-1.71;79.45;99687.17;1763312;79;21163;-51
2020/12/12 03:35:13;;;;;;;14.67;7.40;;;;;;;-1.69;79.47;99686.70;1764761;80;21759;-50
2020/12/12 03:37:40;;;;;;;15.77;7.03;;;;;;;-1.67;79.39;99682.31;1765935;79;21190;-51
2020/12/12 03:40:07;;;;;;;13.50;6.53;;;;;;;-1.68;79.31;99691.11;1768511;79;21158;-53
2020/12/12 03:42:35;;;;;;;12.83;6.70;;;;;;;-1.69;79.28;99689.78;1768770;79;21546;-52
2020/12/12 03:45:02;;;;;;;16.37;7.23;;;;;;;-1.70;79.29;99686.27;1768763;79;21103;-51
2020/12/12 03:47:29;;;;;;;15.10;7.97;;;;;;;-1.68;79.24;99683.63;1766841;79;21724;-55
2020/12/12 03:49:57;;;;;;;14.90;7.40;;;;;;;-1.69;79.22;99690.66;1769492;79;21631;-49
2020/12/12 03:52:24;;;;;;;17.20;7.23;;;;;;;-1.69;79.20;99688.03;1769001;79;21555;-51
2020/12/12 03:54:51;;;;;;;13.73;7.00;;;;;;;-1.69;79.13;99693.30;1765461;79;21195;-53
2020/12/12 03:57:18;;;;;;;16.70;8.80;;;;;;;-1.69;79.10;99693.74;1766699;80;22436;-53
2020/12/12 03:59:46;;;;;;;16.23;8.67;;;;;;;-1.71;79.10;99695.09;1764133;80;22642;-49
2020/12/12 04:02:13;;;;;;;18.73;8.13;;;;;;;-1.72;79.05;99689.81;1735059;80;21191;-53
2020/12/12 04:04:41;;;;;;;18.27;7.07;;;;;;;-1.75;78.90;99685.40;1703316;82;21192;-51
2020/12/12 04:07:09;;;;;;;19.23;8.13;;;;;;;-1.78;78.92;99688.47;1703985;82;21277;-51
2020/12/12 04:09:36;;;;;;;17.53;8.03;;;;;;;-1.80;78.94;99681.89;1735942;80;21160;-52
2020/12/12 04:12:04;;;;;;;14.27;6.87;;;;;;;-1.81;78.92;99680.56;1700690;81;21188;-52
2020/12/12 04:14:31;;;;;;;19.57;8.80;;;;;;;-1.83;78.96;99676.61;1738795;80;21782;-49
2020/12/12 04:16:58;;;;;;;14.43;7.33;;;;;;;-1.83;79.01;99681.88;1704098;82;21231;-49
2020/12/12 04:19:26;;;;;;;11.77;6.97;;;;;;;-1.83;79.01;99683.20;1704388;82;21219;-51
2020/12/12 04:21:53;;;;;;;15.30;7.30;;;;;;;-1.79;79.03;99678.38;1706355;82;21168;-50
2020/12/12 04:24:20;;;;;;;15.87;7.23;;;;;;;-1.76;78.94;99676.16;1703175;81;22523;-51
2020/12/12 04:26:47;;;;;;;13.37;7.57;;;;;;;-1.78;78.81;99671.31;1733894;80;21607;-50
2020/12/12 04:29:15;;;;;;;16.73;6.90;;;;;;;-1.82;78.78;99673.53;1708148;82;21533;-53
2020/12/12 04:31:42;;;;;;;13.90;7.37;;;;;;;-1.85;78.77;99672.20;1697927;82;21188;-50
2020/12/12 04:34:09;;;;;;;15.37;8.53;;;;;;;-1.87;78.82;99670.02;1705124;82;21219;-49
2020/12/12 04:36:37;;;;;;;13.83;7.20;;;;;;;-1.87;78.84;99673.98;1696238;82;21692;-51
2020/12/12 04:39:04;;;;;;;17.80;8.77;;;;;;;-1.86;78.84;99671.31;1704043;82;21227;-52
2020/12/12 04:41:32;;;;;;;18.23;8.03;;;;;;;-1.89;78.84;99671.34;1764104;79;21163;-51
2020/12/12 04:43:59;;;;;;;12.87;6.70;;;;;;;-1.88;78.84;99671.78;1739200;79;21211;-51
2020/12/12 04:46:27;;;;;;;18.43;6.97;;;;;;;-1.91;78.69;99671.77;1761625;80;21529;-52
2020/12/12 04:48:55;;;;;;;11.40;5.27;;;;;;;-1.94;78.72;99666.48;1762627;80;21779;-51
2020/12/12 04:51:24;;;;;;;14.87;7.83;;;;;;;-1.96;78.66;99670.90;1763877;80;21131;-53
2020/12/12 04:53:55;;;;;;;13.07;6.30;;;;;;;-1.99;78.66;99659.02;1740139;79;21119;-52
2020/12/12 04:56:24;;;;;;;15.03;6.87;;;;;;;-2.02;78.63;99657.24;1769263;79;21209;-51
2020/12/12 04:58:52;;;;;;;13.70;6.00;;;;;;;-2.06;78.55;99662.09;1767055;79;21199;-50
2020/12/12 05:01:19;;;;;;;13.80;6.57;;;;;;;-2.09;78.47;99655.92;1764366;79;21661;-54
2020/12/12 05:03:47;;;;;;;11.77;6.17;;;;;;;-2.15;78.54;99657.25;1765960;79;21202;-53
2020/12/12 05:06:14;;;;;;;20.87;7.43;;;;;;;-2.19;78.71;99658.11;1761860;79;21156;-53
2020/12/12 05:08:41;;;;;;;14.97;6.50;;;;;;;-2.19;78.72;99654.15;1762552;80;21810;-50
2020/12/12 05:11:11;;;;;;;17.00;7.23;;;;;;;-2.21;78.67;99666.01;1760776;79;21757;-51
2020/12/12 05:13:38;;;;;;;13.63;5.33;;;;;;;-2.21;78.63;99661.20;1763159;79;21265;-51
2020/12/12 05:16:05;;;;;;;14.33;6.37;;;;;;;-2.22;78.71;99660.76;1766504;79;21668;-50
2020/12/12 05:18:33;;;;;;;14.73;6.20;;;;;;;-2.20;78.71;99655.02;1764914;79;21179;-54
2020/12/12 05:21:01;;;;;;;14.53;6.50;;;;;;;-2.19;78.60;99651.52;1763412;80;21501;-52
2020/12/12 05:23:28;;;;;;;16.43;6.47;;;;;;;-2.21;78.46;99654.61;1762935;79;21687;-54
2020/12/12 05:25:56;;;;;;;11.70;4.77;;;;;;;-2.25;78.28;99657.67;1729855;79;21183;-53
2020/12/12 05:28:23;;;;;;;8.37;4.77;;;;;;;-2.29;78.22;99658.53;1764471;79;21403;-49
2020/12/12 05:30:52;;;;;;;14.20;5.60;;;;;;;-2.32;78.01;99668.66;1765868;80;21103;-49
2020/12/12 05:33:22;;;;;;;10.97;5.13;;;;;;;-2.34;78.02;99666.88;1700682;82;21534;-53
2020/12/12 05:35:50;;;;;;;11.80;5.13;;;;;;;-2.37;77.83;99661.16;1701246;81;21387;-52
2020/12/12 05:38:17;;;;;;;15.20;5.33;;;;;;;-2.39;77.76;99666.00;1702082;82;21999;-52
2020/12/12 05:40:52;;;;;;;9.40;4.97;;;;;;;-2.43;77.87;99661.15;1673407;83;21154;-52
2020/12/12 05:43:19;;;;;;;12.17;5.43;;;;;;;-2.43;77.93;99667.73;1674897;83;21125;-49
2020/12/12 05:45:46;;;;;;;13.00;5.33;;;;;;;-2.43;77.75;99680.03;1671317;83;21219;-51
2020/12/12 05:48:14;;;;;;;15.40;5.47;;;;;;;-2.46;77.71;99671.67;1693716;82;21199;-51
2020/12/12 05:50:41;;;;;;;8.37;4.03;;;;;;;-2.48;77.70;99664.66;1685796;82;21870;-53
2020/12/12 05:53:08;;;;;;;13.03;6.67;;;;;;;-2.49;77.67;99666.41;1652842;82;21194;-54
2020/12/12 05:55:35;;;;;;;10.20;5.27;;;;;;;-2.50;77.59;99659.81;1664738;83;21683;-50
2020/12/12 05:58:02;;;;;;;11.70;5.20;;;;;;;-2.51;77.48;99657.61;1688969;82;21218;-52
2020/12/12 06:00:30;;;;;;;8.77;5.13;;;;;;;-2.52;77.53;99658.92;1688095;82;21235;-52
2020/12/12 06:03:03;;;;;;;12.87;6.00;;;;;;;-2.51;77.42;99664.64;1688689;82;21463;-51
2020/12/12 06:05:32;;;;;;;8.70;5.50;;;;;;;-2.55;77.29;99659.78;1689117;82;21782;-51
2020/12/12 06:08:04;;;;;;;10.50;5.33;;;;;;;-2.55;77.36;99656.30;1691481;82;21804;-50
2020/12/12 06:10:33;;;;;;;11.50;5.37;;;;;;;-2.53;77.21;99656.72;1688478;82;21222;-52
2020/12/12 06:13:04;;;;;;;11.20;6.47;;;;;;;-2.54;77.09;99660.67;1686430;82;21137;-49
2020/12/12 06:15:37;;;;;;;9.33;5.70;;;;;;;-2.55;77.11;99661.10;1690301;82;21209;-50
2020/12/12 06:18:16;;;;;;;12.87;4.63;;;;;;;-2.58;77.10;99661.55;1685596;82;21214;-50
2020/12/12 06:20:43;;;;;;;11.00;5.83;;;;;;;-2.62;77.03;99658.45;1683892;82;21214;-49
2020/12/12 06:23:11;;;;;;;13.87;6.67;;;;;;;-2.62;77.03;99666.36;1688356;82;21528;-54
2020/12/12 06:25:38;;;;;;;13.23;6.47;;;;;;;-2.63;76.95;99662.84;1689390;82;21211;-49
2020/12/12 06:28:05;;;;;;;12.23;4.90;;;;;;;-2.61;76.99;99669.44;1698722;82;21395;-48
2020/12/12 06:30:32;;;;;;;12.97;6.43;;;;;;;-2.61;76.85;99670.75;1700681;82;21200;-50
2020/12/12 06:33:01;;;;;;;13.70;7.23;;;;;;;-2.61;76.83;99666.37;1702230;82;21474;-48
2020/12/12 06:35:35;;;;;;;11.13;5.73;;;;;;;-2.61;76.79;99666.80;1694764;82;21212;-54
2020/12/12 06:38:26;;;;;;;12.43;7.12;;;;;;;-2.59;76.74;99665.94;1705429;82;21516;-53
2020/12/12 06:40:57;;;;;;;13.10;7.60;;;;;;;-2.61;76.69;99667.69;1706365;82;21875;-50
2020/12/12 06:43:35;;;;;;;11.70;6.57;;;;;;;-2.65;76.59;99672.95;1708635;82;21197;-52
2020/12/12 06:46:04;;;;;;;15.17;6.53;;;;;;;-2.67;76.76;99675.58;1703128;82;21206;-53
2020/12/12 06:48:32;;;;;;;10.97;5.50;;;;;;;-2.67;76.71;99676.46;1693853;82;21140;-49
2020/12/12 06:51:01;;;;;;;16.80;6.07;;;;;;;-2.67;76.57;99672.94;1692860;82;21905;-49
2020/12/12 06:53:30;;;;;;;12.60;6.60;;;;;;;-2.71;76.64;99663.25;1696055;82;21966;-48
2020/12/12 06:56:12;;;;;;;11.20;5.77;;;;;;;-2.72;76.67;99661.48;1692049;82;21143;-48
2020/12/12 06:58:39;;;;;;;14.23;6.03;;;;;;;-2.71;76.72;99668.52;1697161;82;21010;-48
2020/12/12 07:01:30;;;;;;;18.23;6.67;;;;;;;-2.71;76.77;99654.03;1692527;83;21185;-53
2020/12/12 07:04:05;;;;;;;9.40;5.63;;;;;;;-2.70;76.75;99655.80;1694036;82;21257;-48
2020/12/12 07:06:34;;;;;;;14.67;6.57;;;;;;;-2.70;76.78;99661.06;1692054;82;23484;-48
2020/12/12 07:09:08;;;;;;;12.53;6.30;;;;;;;-2.70;76.73;99658.43;1691171;82;21194;-52
2020/12/12 07:11:36;;;;;;;13.08;6.05;;;;;;;-2.72;76.79;99656.22;1690039;82;21510;-49
2020/12/12 07:14:03;;;;;;;12.00;6.40;;;;;;;-2.71;76.86;99658.86;1690021;83;21280;-48
2020/12/12 07:16:31;;;;;;;10.37;5.67;;;;;;;-2.66;76.78;99656.27;1664048;83;21166;-49
2020/12/12 07:18:59;;;;;;;12.40;6.67;;;;;;;-2.65;76.78;99644.85;1692523;83;21211;-51
2020/12/12 07:21:26;;;;;;;12.23;6.13;;;;;;;-2.61;76.71;99647.04;1690600;83;22249;-52
2020/12/12 07:23:53;;;;;;;9.00;4.50;;;;;;;-2.61;76.77;99646.60;1690659;83;21211;-50
2020/12/12 07:26:20;;;;;;;10.73;4.97;;;;;;;-2.58;76.67;99640.47;1689416;83;21215;-50
2020/12/12 07:28:48;;;;;;;9.80;4.63;;;;;;;-2.59;76.68;99638.27;1692633;83;21195;-50
2020/12/12 07:31:15;;;;;;;11.20;5.37;;;;;;;-2.60;76.70;99630.36;1678181;83;21398;-48
2020/12/12 07:33:47;;;;;;;8.47;4.33;;;;;;;-2.58;76.76;99638.72;1651402;83;22442;-52
2020/12/12 07:36:14;;;;;;;13.50;5.07;;;;;;;-2.55;76.82;99641.81;1687789;82;21756;-49
2020/12/12 07:38:41;;;;;;;12.00;5.67;;;;;;;-2.53;76.81;99647.94;1717857;81;21525;-48
2020/12/12 07:41:13;;;;;;;7.33;4.33;;;;;;;-2.51;76.81;99644.44;1703717;83;21481;-51
2020/12/12 07:43:56;;;;;;;10.93;4.20;;;;;;;-2.49;76.71;99648.41;1694242;82;21373;-52
2020/12/12 07:46:38;;;;;;;12.43;5.23;;;;;;;-2.48;76.66;99643.58;1708645;82;21575;-49
2020/12/12 07:49:00;;;;;;;10.93;4.60;;;;;;;-2.51;76.60;99645.76;1724178;81;21168;-50
2020/12/12 07:51:27;;;;;;;;;;;;;;;-2.52;76.66;99645.31;1707526;82;21207;-49
2020/12/12 07:53:54;;;;;;;11.17;4.33;;;;;;;-2.54;76.61;99648.81;1703665;82;20297;-49
2020/12/12 07:56:23;;;;;;;12.93;6.43;;;;;;;-2.56;76.66;99640.92;1704014;82;22116;-48
2020/12/12 07:59:08;;;;;;;13.80;5.70;;;;;;;-2.58;76.75;99645.30;1725244;81;21591;-51
2020/12/12 08:01:34;;;;;;;18.00;6.67;;;;;;;-2.58;76.82;99646.62;1702954;82;21559;-48
2020/12/12 08:04:01;;;;;;;11.37;5.37;;;;;;;-2.55;76.96;99645.29;1700201;82;21649;-52
2020/12/12 08:06:28;;;;;;;10.93;5.57;;;;;;;-2.53;76.93;99644.87;1727287;81;21203;-49
2020/12/12 08:08:56;;;;;;;10.13;4.73;;;;;;;-2.49;77.00;99642.70;1727232;81;21602;-51
2020/12/12 08:11:23;;;;;;;10.83;4.63;;;;;;;-2.45;77.00;99643.56;1698221;83;21510;-51
2020/12/12 08:13:51;;;;;;;11.23;5.73;;;;;;;-2.43;77.03;99640.06;1701010;82;21211;-52
2020/12/12 08:16:27;;;;;;;16.93;5.63;;;;;;;-2.41;77.03;99644.02;1704996;82;21208;-51
2020/12/12 08:18:51;;;;;;;11.87;5.27;;;;;;;-2.40;77.02;99645.35;1725332;81;21175;-49
2020/12/12 08:21:19;;;;;;;8.57;4.47;;;;;;;-2.38;76.93;99639.62;1726576;81;21227;-49
2020/12/12 08:23:47;;;;;;;12.97;4.80;;;;;;;-2.35;77.02;99637.44;1722591;81;21183;-48
2020/12/12 08:26:20;;;;;;;13.80;7.30;;;;;;;-2.36;76.95;99640.51;1720679;81;21637;-48
2020/12/12 08:28:48;;;;;;;13.73;6.43;;;;;;;-2.36;77.07;99637.88;1702300;82;21117;-48
2020/12/12 08:31:17;;;;;;;11.50;6.07;;;;;;;-2.34;77.14;99641.84;1690755;82;21109;-48
2020/12/12 08:33:46;;;;;;;13.60;6.70;;;;;;;-2.32;77.18;99646.24;1706976;82;21828;-49
2020/12/12 08:36:16;;;;;;;16.93;7.83;;;;;;;-2.29;77.19;99640.95;1700421;82;21670;-50
2020/12/12 08:38:53;;;;;;;13.83;6.17;;;;;;;-2.27;77.04;99640.08;1702635;82;21479;-49
2020/12/12 08:41:21;;;;;;;12.67;6.90;;;;;;;-2.25;77.04;99639.65;1765796;79;21869;-49
2020/12/12 08:43:48;;;;;;;10.07;5.87;;;;;;;-2.22;77.08;99632.64;1763622;79;21163;-47
2020/12/12 08:46:16;;;;;;;13.57;6.13;;;;;;;-2.20;77.08;99630.85;1762666;79;21568;-48
2020/12/12 08:48:44;;;;;;;14.70;6.77;;;;;;;-2.20;77.03;99629.97;1763394;80;21204;-49
2020/12/12 08:51:11;;;;;;;14.70;6.43;;;;;;;-2.18;76.99;99637.02;1763745;79;21092;-53
2020/12/12 08:53:46;;;;;;;14.17;6.17;;;;;;;-2.20;76.87;99629.53;1764766;79;22154;-49
2020/12/12 08:56:25;;;;;;;14.85;6.92;;;;;;;-2.18;76.90;99622.95;1762376;79;21222;-52
2020/12/12 08:59:01;;;;;;;16.07;6.83;;;;;;;-2.16;76.84;99619.88;1762089;79;21199;-53
2020/12/12 09:01:39;;;;;;;15.97;7.57;;;;;;;-2.16;76.89;99620.77;1762732;79;21200;-48
2020/12/12 09:04:15;;;;;;;12.97;7.17;;;;;;;-2.13;76.81;99614.19;1766506;79;21108;-53
2020/12/12 09:06:56;;;;;;;20.47;8.40;;;;;;;-2.13;76.83;99611.98;1766135;79;21553;-52
2020/12/12 09:09:31;;;;;;;9.57;5.27;;;;;;;-2.14;76.81;99611.55;1760220;80;21211;-49
2020/12/12 09:12:07;;;;;;;11.80;6.20;;;;;;;-2.15;76.89;99609.78;1703482;82;21628;-50
2020/12/12 09:14:41;;;;;;;17.40;8.23;;;;;;;-2.12;76.92;99613.72;1762238;79;21206;-49
2020/12/12 09:17:09;;;;;;;11.63;6.63;;;;;;;-2.13;76.72;99606.71;1765205;79;21175;-50
2020/12/12 09:19:39;;;;;;;17.37;7.93;;;;;;;-2.15;76.79;99606.70;1764591;79;21141;-50
2020/12/12 09:22:08;;;;;;;14.50;6.70;;;;;;;-2.15;76.86;99600.55;1766053;79;21593;-48
2020/12/12 09:24:35;;;;;;;21.53;9.27;;;;;;;-2.14;76.93;99593.08;1759480;79;21692;-51
2020/12/12 09:27:02;;;;;;;19.83;7.47;;;;;;;-2.12;76.97;99592.18;1763351;79;21514;-50
2020/12/12 09:29:30;;;;;;;15.43;8.60;;;;;;;-2.10;77.03;99590.87;1770992;79;21170;-53
2020/12/12 09:31:57;;;;;;;17.20;8.97;;;;;;;-2.09;77.04;99588.67;1760852;79;21882;-50
2020/12/12 09:34:25;;;;;;;16.87;8.03;;;;;;;-2.07;77.10;99586.92;1731442;80;21982;-52
2020/12/12 09:36:53;;;;;;;21.47;10.40;;;;;;;-2.03;77.13;99582.95;1766616;79;21063;-49
2020/12/12 09:39:20;;;;;;;18.93;7.93;;;;;;;-1.99;77.12;99578.56;1706804;82;21238;-49
2020/12/12 09:41:47;;;;;;;17.23;7.37;;;;;;;-1.99;77.04;99570.22;1705763;82;21677;-52
2020/12/12 09:44:14;;;;;;;19.43;7.90;;;;;;;-2.00;77.03;99576.37;1733617;80;21528;-49
2020/12/12 09:46:41;;;;;;;15.90;8.80;;;;;;;-2.01;76.95;99559.22;1706322;82;21208;-52
2020/12/12 09:50:59;;;;;;;22.23;10.30;;;;;;;-1.97;77.12;99551.75;1791408;78;26876;-49
2020/12/12 09:53:26;;;;;;;20.67;8.97;;;;;;;-1.98;77.22;99552.63;1769168;79;21158;-53
2020/12/12 09:55:53;;;;;;;21.20;9.03;;;;;;;-1.94;77.19;99552.61;1765771;79;21360;-53
2020/12/12 09:58:21;;;;;;;16.33;7.67;;;;;;;-1.92;77.06;99552.61;1731980;81;21186;-51
2020/12/12 10:00:48;;;;;;;15.50;7.40;;;;;;;-1.95;77.01;99545.58;1717841;81;21203;-52
2020/12/12 10:03:15;;;;;;;24.37;8.77;;;;;;;-1.93;77.04;99549.53;1718591;82;21052;-52
2020/12/12 10:05:42;;;;;;;15.00;7.87;;;;;;;-1.90;77.07;99546.91;1712857;82;21242;-50
2020/12/12 10:08:12;;;;;;;14.83;8.53;;;;;;;-1.88;77.02;99538.55;1717123;82;21567;-49
2020/12/12 10:10:40;;;;;;;20.27;7.53;;;;;;;-1.87;77.01;99534.16;1718734;81;21562;-51
2020/12/12 10:13:07;;;;;;;14.80;7.17;;;;;;;-1.87;77.01;99546.88;1708872;82;22161;-52
2020/12/12 10:15:34;;;;;;;19.13;8.60;;;;;;;-1.87;76.92;99546.88;1702183;82;21222;-53
2020/12/12 10:18:02;;;;;;;15.83;7.77;;;;;;;-1.89;76.91;99545.14;1707649;82;21115;-54
2020/12/12 10:20:29;;;;;;;16.67;7.10;;;;;;;-1.91;76.97;99532.83;1713436;81;21385;-48
2020/12/12 10:22:56;;;;;;;16.27;7.80;;;;;;;-1.89;77.05;99534.16;1712901;81;21139;-51
2020/12/12 10:25:23;;;;;;;15.77;8.80;;;;;;;-1.89;76.90;99528.87;1717388;82;21202;-48
2020/12/12 10:27:52;;;;;;;18.47;9.13;;;;;;;-1.89;76.98;99522.72;1709646;82;21237;-49
2020/12/12 10:30:20;;;;;;;12.93;6.87;;;;;;;-1.89;77.05;99518.33;1682159;82;21226;-49
2020/12/12 10:32:47;;;;;;;17.60;7.00;;;;;;;-1.84;77.14;99521.81;1718469;82;23552;-51
2020/12/12 10:35:14;;;;;;;20.13;9.53;;;;;;;-1.82;76.89;99518.74;1715675;81;21202;-50
2020/12/12 10:37:43;;;;;;;19.33;8.33;;;;;;;-1.82;76.85;99515.22;1721844;81;21672;-55
2020/12/12 10:40:17;;;;;;;16.83;7.93;;;;;;;-1.81;76.88;99519.63;1703905;82;21235;-51
2020/12/12 10:42:41;;;;;;;14.57;7.73;;;;;;;-1.82;76.90;99521.37;1726322;81;21435;-52
2020/12/12 10:45:09;;;;;;;18.67;8.50;;;;;;;-1.81;76.94;99524.46;1727130;81;21533;-52
2020/12/12 10:47:37;;;;;;;16.50;8.27;;;;;;;-1.80;76.77;99514.79;1729970;81;21179;-49
2020/12/12 10:50:06;;;;;;;24.27;10.10;;;;;;;-1.85;76.82;99513.91;1723184;81;21204;-51
2020/12/12 10:52:35;;;;;;;16.50;7.97;;;;;;;-1.87;76.95;99509.94;1757806;80;21112;-49
2020/12/12 10:55:04;;;;;;;17.63;8.20;;;;;;;-1.86;76.96;99510.38;1761688;80;21125;-48
2020/12/12 10:57:32;;;;;;;23.60;10.53;;;;;;;-1.85;77.01;99516.09;1723057;82;22052;-49
2020/12/12 11:00:01;;;;;;;22.53;10.47;;;;;;;-1.85;77.04;99512.14;1697886;82;21217;-50
2020/12/12 11:05:05;;;;;;;21.23;12.27;;;;;;;-1.80;77.02;99510.39;1798202;76;28927;-50
2020/12/12 11:07:34;;;;;;;18.37;9.97;;;;;;;-1.82;76.80;99510.83;1760616;78;21099;-50
2020/12/12 11:10:01;;;;;;;14.60;7.07;;;;;;;-1.78;76.49;99514.31;1748853;80;21397;-51
2020/12/12 11:12:28;;;;;;;18.87;9.43;;;;;;;-1.81;76.49;99515.66;1752100;80;21218;-54
2020/12/12 11:14:56;;;;;;;18.80;7.80;;;;;;;-1.88;76.41;99516.13;1745519;80;21223;-55
2020/12/12 11:17:24;;;;;;;18.30;8.23;;;;;;;-1.89;76.58;99520.97;1744481;80;21470;-54
2020/12/12 11:19:52;;;;;;;22.17;8.97;;;;;;;-1.91;76.57;99523.59;1754805;80;21596;-50
2020/12/12 11:22:19;;;;;;;15.57;8.70;;;;;;;-1.92;76.55;99530.19;1740753;80;21657;-52
2020/12/12 11:24:46;;;;;;;16.17;7.83;;;;;;;-1.93;76.62;99533.70;1750913;80;21210;-54
2020/12/12 11:27:13;;;;;;;17.10;8.93;;;;;;;-1.93;76.66;99529.31;1748717;80;21398;-53
2020/12/12 11:29:40;;;;;;;15.93;8.20;;;;;;;-1.92;76.48;99527.11;1747145;80;21614;-49
2020/12/12 11:32:09;;;;;;;22.10;10.03;;;;;;;-1.94;76.58;99524.03;1746409;80;21791;-50
2020/12/12 11:34:40;;;;;;;19.70;8.47;;;;;;;-1.93;76.70;99521.84;1741403;80;21240;-49
2020/12/12 11:39:49;;;;;;;24.07;10.37;;;;;;;-1.99;76.72;99506.91;1705803;82;21191;-50